x

East Santa Barbara - 12nm Southwest Of Santa Barbara, Ca (46053) Wave Buoy

7:50am - Wed 3rd Jun 2015 All times are PDT. -7 hours from GMT.

  • Sig Wave height 3.3ft
  • Swell Direction
  • Peak Period 7s
  • Average Period 5s
  • Wind
    7mph, 9mph gusts
  • Sea Temp 60°f
  • Air Temp 59°f
  • Sea Pressure 1014.5mb
  • East Santa Barbara  - 12nm Southwest Of Santa Barbara, Ca
  • East Santa Barbara  - 12nm Southwest Of Santa Barbara, Ca

More Historic Weather Station data

Upgrade to MSW Pro to gain access to the past 30 days of data for over 8000 Wavebouys and Weather Stations around the globe.

Join Pro

Comparision Forecast

View Surf forecast
   
Wed 06/03 7:50am 3.5ft 7s 5s 7 9 mph 1014.5mb 60f 59f
7:40am  -   -   -  7 9 mph 1014.4mb 60f 59f
7:30am  -   -   -  7 9 mph 1014.4mb 60f 59f
7:20am  -   -   -  7 9 mph 1014.1mb 60f 59f
7:10am  -   -   -  7 9 mph 1013.9mb 60f 59f
7:00am  -   -   -  7 11 mph 1014mb 60f 59f
6:50am 3.5ft 8s 5s 7 9 mph 1013.8mb 60f 59f
6:40am 3.5ft  -  5s 9 11 mph 1013.9mb 60f 59f
6:30am  -   -   -  9 11 mph 1013.6mb 60f 59f
6:20am  -   -   -  9 11 mph 1013.5mb 60f 59f
6:10am  -   -   -  7 9 mph 1013.5mb 60f 60f
6:00am  -   -   -  7 9 mph 1013.5mb 60f 60f
5:50am 3.5ft 6s 5s 7 9 mph 1013.5mb 60f 59f
5:40am  -   -   -  7 9 mph 1013.5mb 60f 59f
5:30am  -   -   -  7 9 mph 1013.4mb 60f 59f
5:20am  -   -   -  7 9 mph 1013.4mb 60f 60f
5:10am  -   -   -  7 9 mph 1013.3mb 60f 59f
5:00am  -   -   -  4 7 mph 1013.4mb 60f 59f
4:50am 3.5ft 8s 5s 7 9 mph 1013.4mb 60f 58f
4:40am  -   -   -  7 9 mph 1013.4mb 60f 58f
4:30am  -   -   -  7 9 mph 1013.4mb 60f 58f
4:20am  -   -   -  7 9 mph 1013.4mb 60f 58f
4:10am  -   -   -  7 9 mph 1013.4mb 60f 59f
4:00am  -   -   -  7 11 mph 1013.4mb 60f 59f
3:50am 3.5ft 7s 5s 7
mph
1013.5mb 60f 60f
3:40am 3.5ft  -  5s 7 9 mph 1013.4mb 59f 59f
3:30am  -   -   -  7
mph
1013.4mb 59f 59f
3:20am  -   -   -  4 7 mph 1013.3mb 59f 59f
3:10am  -   -   -  2 4 mph 1013.4mb 59f 59f
3:00am  -   -   -  4 7 mph 1013.3mb 59f 59f
2:50am 3.5ft 7s 5s 4 7 mph 1013.3mb 59f 59f
2:40am  -   -   -  7
mph
1013.1mb 59f 59f
2:30am  -   -   -  7 9 mph 1013.4mb 59f 58f
2:20am  -   -   -  9 11 mph 1013.4mb 59f 58f
2:10am  -   -   -  9 13 mph 1013.4mb 59f 58f
2:00am  -   -   -  11 16 mph 1013.4mb 59f 58f
1:50am 3.5ft 7s 5s 11 16 mph 1013.5mb 59f 58f
1:40am  -   -   -  11
mph
1013.5mb 59f 59f
1:30am  -   -   -  9 11 mph 1013.5mb 59f 59f
1:20am  -   -   -  4 9 mph 1013.5mb 59f 59f
1:10am  -   -   -  4 7 mph 1013.5mb 59f 59f
1:00am  -   -   -  4 7 mph 1013.5mb 59f 59f
12:50am 4ft 7s 5s 4 7 mph 1013.5mb 59f 59f
12:40am  -   -   -  7 9 mph 1013.6mb 59f 58f
12:30am  -   -   -  7 9 mph 1013.6mb 59f 58f
12:20am  -   -   -  9 13 mph 1013.5mb 58f 58f
12:10am  -   -   -  13 16 mph 1013.6mb 58f 58f
12:00am  -   -   -  16 18 mph 1013.6mb 58f 58f
Tue 06/02 11:50pm 4.5ft 6s 5s 16 18 mph 1013.5mb 58f 58f
11:40pm  -   -   -  16 18 mph 1013.8mb 58f 58f
11:30pm  -   -   -  16 20 mph 1013.8mb 58f 58f
11:20pm  -   -   -  16 20 mph 1013.8mb 58f 58f
11:10pm  -   -   -  16 20 mph 1013.9mb 58f 58f
11:00pm  -   -   -  16 20 mph 1013.9mb 58f 58f
10:50pm 4.5ft 6s 5s 16 20 mph 1013.9mb 58f 58f
10:40pm  -   -   -  16 20 mph 1013.9mb 59f 58f
10:30pm  -   -   -  16 20 mph 1013.9mb 59f 58f
10:20pm  -   -   -  16 20 mph 1013.9mb 59f 58f
10:10pm  -   -   -  18 20 mph 1013.9mb 59f 58f
10:00pm  -   -   -  18 22 mph 1013.9mb 59f 58f
9:50pm 4ft 6s 5s 18 20 mph 1013.8mb 59f 58f
9:40pm  -   -   -  18 20 mph 1013.8mb 59f 58f
9:30pm  -   -   -  18 25 mph 1013.6mb 59f 58f
9:20pm  -   -   -  18 22 mph 1013.5mb 59f 59f
9:10pm  -   -   -  18 22 mph 1013.5mb 59f 59f
9:00pm  -   -   -  18 22 mph 1013.5mb 59f 59f
8:50pm 4ft 6s 5s 20 22 mph 1013.4mb 59f 59f
8:40pm  -   -   -  18 22 mph 1013.4mb 59f 59f
8:30pm  -   -   -  18 22 mph 1013.3mb 59f 59f
8:20pm  -   -   -  18 22 mph 1013.3mb 59f 60f
8:10pm  -   -   -  18 20 mph 1013.1mb 59f 60f
8:00pm  -   -   -  16 20 mph 1013.1mb 59f 60f
7:50pm 4ft 5s 5s 13 18 mph 1013.1mb 59f 59f
7:40pm  -   -   -  13 16 mph 1013mb 59f 59f
7:30pm  -   -   -  13 18 mph 1013.1mb 59f 59f
7:20pm  -   -   -  13 16 mph 1013.3mb 59f 60f
7:10pm  -   -   -  13 16 mph 1013.3mb 59f 60f
7:00pm  -   -   -  9 11 mph 1013mb 59f 60f
6:50pm 4.5ft 6s 5s 11 13 mph 1013mb 59f 60f
6:40pm  -   -   -  13 16 mph 1013mb 59f 60f
6:30pm  -   -   -  13 16 mph 1013mb 59f 60f
6:20pm  -   -   -  13 16 mph 1013mb 59f 60f
6:10pm  -   -   -  16 18 mph 1013mb 59f 60f
6:00pm  -   -   -  16 18 mph 1013mb 60f 60f
5:50pm  -   -   -  16 18 mph 1013mb 60f 60f
5:40pm  -   -   -  13 16 mph 1013.1mb 60f 60f
5:30pm  -   -   -  13 16 mph 1013.4mb 60f 60f
5:20pm  -   -   -  11 16 mph 1013.5mb 60f 60f
5:10pm  -   -   -  11 16 mph 1013.5mb 60f 59f
5:00pm  -   -   -  13 16 mph 1013.8mb 60f 59f
4:50pm 3.5ft 6s 4s 13 18 mph 1013.9mb 60f 59f
4:40pm  -   -   -  11 16 mph 1013.9mb 59f 59f
4:30pm  -   -   -  13 16 mph 1014mb 59f 59f
4:20pm  -   -   -  13 16 mph 1014.1mb 59f 59f
4:10pm  -   -   -  13 16 mph 1014.3mb 59f 59f
4:00pm  -   -   -  13 18 mph 1014.4mb 60f 59f
3:50pm 3.5ft 6s 4s 13 16 mph 1014.4mb 60f 59f
3:40pm  -   -   -  13 16 mph 1014.5mb 60f 59f
3:30pm  -   -   -  13 16 mph 1014.8mb 60f 59f
3:20pm  -   -   -  13 18 mph 1014.9mb 60f 59f
3:10pm  -   -   -  13 18 mph 1015mb 60f 59f
3:00pm  -   -   -  13 16 mph 1015mb 60f 59f
2:50pm 3.5ft 6s 5s 11 16 mph 1015mb 60f 59f
2:40pm  -   -   -  13 16 mph 1015.3mb 60f 59f
2:30pm  -   -   -  11 16 mph 1015.4mb 60f 59f
2:20pm  -   -   -  11 16 mph 1015.5mb 60f 59f
2:10pm  -   -   -  11 13 mph 1015.5mb 60f 59f
2:00pm  -   -   -  9 13 mph 1015.6mb 60f 59f
1:50pm 2.5ft 5s 4s 9 11 mph 1015.6mb 59f 58f
1:40pm  -   -   -  9 11 mph 1015.8mb 59f 58f
1:30pm  -   -   -  9 11 mph 1015.9mb 59f 58f
1:20pm  -   -   -  11 13 mph 1015.9mb 59f 58f
1:10pm  -   -   -  11 13 mph 1016mb 59f 58f
1:00pm  -   -   -  11 13 mph 1016mb 59f 58f
12:50pm 2ft 5s 4s 11 16 mph 1016mb 59f 58f
12:40pm  -   -   -  13 16 mph 1016.1mb 59f 58f
12:30pm  -   -   -  13 16 mph 1016.1mb 59f 58f
12:20pm  -   -   -  13 16 mph 1016.1mb 59f 58f
12:10pm  -   -   -  13 16 mph 1016.1mb 59f 58f
12:00pm  -   -   -  9 13 mph 1016.1mb 59f 57f
11:50am 1.6ft 4s  -  9 11 mph 1016.3mb 59f 56f
11:40am  -   -   -  9
mph
1016.3mb 59f 56f
11:30am  -   -   -  9
mph
1016.3mb 59f 56f
11:20am  -   -   -  7 9 mph 1016.3mb 59f 57f
11:10am  -   -   -  7
mph
1016.3mb 59f 57f
11:00am  -   -   -  7 9 mph 1016.3mb 59f 57f
10:50am 2ft 5s 4s 7 9 mph 1016.3mb 59f 57f
10:40am  -   -   -  7 9 mph 1016.3mb 59f 58f
10:30am  -   -   -  2 4 mph 1016mb 59f 60f
10:20am  -   -   -   -  2 mph 1016mb 59f 60f
10:10am  -   -   -   -  2 mph 1016.1mb 59f 60f
10:00am  -   -   -   -  2 mph 1016.1mb 59f 60f
9:50am 2ft 5s 4s  -  2 mph 1016.3mb 59f 59f
9:40am  -   -   -  2
mph
1016.3mb 59f 59f
9:30am  -   -   -  2 4 mph 1016.1mb 59f 59f
9:20am  -   -   -  4 7 mph 1016.1mb 59f 59f
9:10am  -   -   -  4 7 mph 1016mb 59f 59f
9:00am  -   -   -  4 7 mph 1016.1mb 59f 59f
8:50am 2ft 5s 4s 7 9 mph 1016mb 59f 59f
8:40am  -   -   -  7
mph
1016mb 59f 59f
8:30am  -   -   -  7
mph
1016mb 59f 59f
8:20am  -   -   -  7
mph
1016mb 59f 59f
8:10am  -   -   -  4 7 mph 1016mb 59f 59f
8:00am  -   -   -  4 7 mph 1016mb 59f 59f
7:50am 2ft 5s 4s 4 7 mph 1016mb 59f 59f
7:40am  -   -   -   -  2 mph 1015.9mb 59f 60f
7:30am  -   -   -   -  2 mph 1015.9mb 59f 60f
7:20am  -   -   -   -  2 mph 1015.8mb 59f 60f
7:10am  -   -   -   -  mph 1015.8mb 59f 60f
7:00am  -   -   -  2 4 mph 1015.8mb 59f 59f
6:50am 2.5ft 5s 4s  -  2 mph 1015.6mb 59f 59f
6:40am  -   -   -  2 4 mph 1015.6mb 59f 58f
6:30am  -   -   -  4 7 mph 1015.5mb 59f 58f
6:20am  -   -   -  4
mph
1015.5mb 59f 58f
6:10am  -   -   -  4
mph
1015.4mb 59f 58f
6:00am  -   -   -  2 4 mph 1015.4mb 59f 58f
5:50am 2.5ft 5s 4s 2
mph
1015.4mb 59f 58f
5:40am  -   -   -  2 4 mph 1015.4mb 59f 58f
5:30am  -   -   -  4
mph
1015.4mb 59f 58f
5:20am  -   -   -  2 4 mph 1015.3mb 59f 58f
5:10am  -   -   -  2 4 mph 1015.4mb 59f 58f
5:00am  -   -   -  2
mph
1015.3mb 59f 59f
4:50am 2.5ft 5s 4s 2 4 mph 1015.3mb 59f 59f
4:40am  -   -   -  4 7 mph 1015.4mb 59f 59f
4:30am  -   -   -  2 4 mph 1015.4mb 59f 60f
4:20am  -   -   -  2 4 mph 1015.4mb 59f 59f
4:10am  -   -   -  2 4 mph 1015.3mb 59f 59f
4:00am  -   -   -  2 4 mph 1015.4mb 59f 59f
3:50am 2ft 5s 4s 2 4 mph 1015.3mb 59f 59f
3:40am  -   -   -  2
mph
1015mb 59f 59f
3:30am  -   -   -  2
mph
1015.1mb 59f 59f
3:20am  -   -   -  2
mph
1015.1mb 59f 59f
3:10am  -   -   -  2 4 mph 1015.3mb 59f 59f
3:00am  -   -   -  4
mph
1015.3mb 59f 59f
2:50am 2.5ft 5s 4s 4
mph
1015.3mb 59f 59f
2:40am  -   -   -  4
mph
1015.3mb 59f 59f
2:30am  -   -   -  4
mph
1015.4mb 59f 59f
2:20am  -   -   -  4
mph
1015.4mb 59f 59f
2:10am  -   -   -  4
mph
1015.4mb 59f 59f
2:00am  -   -   -  2 4 mph 1015.4mb 59f 59f
1:50am 2.5ft 4s 4s 2
mph
1015.5mb 59f 59f
1:40am  -   -   -   -  2 mph 1015.5mb 59f 59f
1:30am  -   -   -  2
mph
1015.5mb 59f 59f
1:20am  -   -   -   -  2 mph 1015.6mb 59f 59f
1:10am  -   -   -  2 4 mph 1015.8mb 59f 59f
1:00am  -   -   -   -  2 mph 1015.6mb 59f 59f
12:50am 2.5ft 5s 4s  -  2 mph 1015.6mb 59f 59f
12:40am  -   -   -   -  2 mph 1015.6mb 59f 59f
12:30am  -   -   -  2
mph
1015.8mb 59f 60f
12:20am  -   -   -  2 4 mph 1015.8mb 59f 60f
12:10am  -   -   -  4 7 mph 1015.8mb 59f 59f
12:00am  -   -   -  7 11 mph 1015.8mb 59f 59f
Mon 06/01 11:50pm 3ft 5s 4s 9 13 mph 1015.8mb 59f 59f
11:40pm  -   -   -  9 11 mph 1015.8mb 59f 60f
11:30pm  -   -   -  11 13 mph 1015.8mb 59f 60f
11:20pm  -   -   -  11 16 mph 1015.8mb 59f 60f
11:10pm  -   -   -  13 16 mph 1015.5mb 59f 60f
11:00pm  -   -   -  16 18 mph 1015.5mb 59f 60f
10:50pm 3ft 5s 4s 13 18 mph 1015.5mb 59f 60f
10:40pm  -   -   -  13 16 mph 1015.6mb 59f 60f
10:30pm  -   -   -  13 16 mph 1015.8mb 59f 60f
10:20pm  -   -   -  13 16 mph 1015.8mb 59f 60f
10:10pm  -   -   -  13 16 mph 1015.6mb 59f 60f
10:00pm  -   -   -  16 20 mph 1015.5mb 58f 60f
9:50pm 3.5ft 5s 4s 18 25 mph 1015.4mb 58f 60f
9:40pm  -   -   -  20 22 mph 1015.4mb 58f 60f
9:30pm  -   -   -  20 25 mph 1015.1mb 58f 60f
9:20pm  -   -   -  20 25 mph 1015mb 58f 60f
9:10pm  -   -   -  20 22 mph 1015mb 58f 60f
9:00pm  -   -   -  20 25 mph 1015mb 58f 60f
8:50pm 3.5ft 5s 4s 20 25 mph 1014.8mb 58f 60f
8:40pm  -   -   -  20 25 mph 1014.6mb 58f 60f
8:30pm  -   -   -  20 25 mph 1014.6mb 58f 60f
8:20pm  -   -   -  20 25 mph 1014.6mb 58f 60f
8:10pm  -   -   -  20 25 mph 1014.6mb 59f 60f
8:00pm  -   -   -  20 25 mph 1014.6mb 59f 60f
7:50pm 3.5ft 5s 4s 20 25 mph 1014.6mb 59f 60f
7:40pm  -   -   -  20 22 mph 1014.6mb 59f 60f
7:30pm  -   -   -  18 22 mph 1014.8mb 59f 60f
7:20pm  -   -   -  20 22 mph 1014.6mb 59f 60f
7:10pm  -   -   -  20 25 mph 1014.6mb 59f 60f
7:00pm  -   -   -  16 20 mph 1014.6mb 59f 60f
6:50pm 3ft 5s 4s 16 20 mph 1014.6mb 59f 60f
6:40pm  -   -   -  16 18 mph 1014.8mb 59f 60f
6:30pm  -   -   -  16 18 mph 1014.9mb 59f 61f
6:20pm  -   -   -  16 18 mph 1014.9mb 59f 61f
6:10pm  -   -   -  13 16 mph 1015mb 59f 61f
6:00pm  -   -   -  9 11 mph 1014.9mb 59f 61f
5:50pm 3.5ft 5s 4s 11 13 mph 1015mb 59f 60f
5:40pm  -   -   -  11 13 mph 1015mb 59f 60f
5:30pm  -   -   -  11 13 mph 1015mb 59f 60f
5:20pm  -   -   -  11 13 mph 1015.3mb 59f 60f
5:10pm  -   -   -  11 13 mph 1015.3mb 59f 60f
5:00pm  -   -   -  9 11 mph 1015.4mb 59f 60f
4:50pm 2.5ft 5s 4s 11 13 mph 1015.5mb 59f 60f
4:40pm  -   -   -  11 13 mph 1015.5mb 59f 60f
4:30pm  -   -   -  11 13 mph 1015.8mb 59f 60f
4:20pm  -   -   -  11 13 mph 1015.8mb 59f 60f
4:10pm  -   -   -  11 13 mph 1015.8mb 59f 60f
4:00pm  -   -   -  11 13 mph 1015.9mb 59f 60f
3:50pm 1ft 12s 6s 11 13 mph 1016mb 59f 60f
3:40pm  -   -   -  9 13 mph 1016mb 59f 60f
3:30pm  -   -   -  9
mph
1016mb 59f 59f
3:20pm  -   -   -  7 9 mph 1016.4mb 59f 58f
3:10pm  -   -   -  9
mph
1016.5mb 59f 58f
3:00pm  -   -   -  9
mph
1016.6mb 59f 58f
2:50pm 1.3ft 13s 6s 9 11 mph 1016.9mb 59f 58f
2:40pm  -   -   -  9 11 mph 1016.9mb 59f 58f
2:30pm  -   -   -  9
mph
1017mb 59f 58f
2:20pm  -   -   -  7 9 mph 1017.1mb 59f 58f
2:10pm  -   -   -  9 11 mph 1017.1mb 59f 58f
2:00pm  -   -   -  9 11 mph 1017.3mb 59f 58f
1:50pm 1.3ft 12s 6s 9 11 mph 1017.4mb 59f 57f
1:40pm  -   -   -  7 9 mph 1017.5mb 59f 57f
1:30pm  -   -   -  7 9 mph 1017.5mb 59f 57f
1:20pm  -   -   -  7 9 mph 1017.6mb 58f 57f
1:10pm  -   -   -  7 9 mph 1017.5mb 59f 57f
1:00pm  -   -   -  4 7 mph 1017.6mb 59f 57f
12:50pm 1.3ft 13s 6s 7 9 mph 1017.6mb 58f 57f
12:40pm  -   -   -  7 9 mph 1017.6mb 58f 57f
12:30pm  -   -   -  7 9 mph 1017.6mb 58f 57f
12:20pm  -   -   -  7 9 mph 1017.6mb 58f 57f
12:10pm  -   -   -  7 9 mph 1017.6mb 58f 57f
12:00pm  -   -   -  7 9 mph 1017.8mb 58f 57f
11:50am 1.3ft 12s 5s 7
mph
1017.8mb 58f 57f
11:40am  -   -   -  7
mph
1017.9mb 58f 57f
11:30am  -   -   -  7 9 mph 1017.9mb 58f 57f
11:20am  -   -   -  7 9 mph 1018mb 58f 57f
11:10am  -   -   -  7 9 mph 1017.9mb 58f 57f
11:00am  -   -   -  7 9 mph 1017.9mb 58f 57f
10:50am 1.3ft 11s 5s 4 7 mph 1017.8mb 58f 57f
10:40am  -   -   -  7
mph
1017.8mb 58f 57f
10:30am  -   -   -  7
mph
1017.6mb 58f 57f
10:20am  -   -   -  7
mph
1017.5mb 58f 57f
10:10am  -   -   -  7 9 mph 1017.5mb 58f 57f
10:00am  -   -   -  7 9 mph 1017.5mb 58f 57f
9:50am  -   -   -  7 9 mph 1017.5mb 58f 57f
9:40am  -   -   -  7
mph
1017.3mb 57f 57f
9:30am  -   -   -  7
mph
1017.3mb 57f 57f
9:20am  -   -   -  7
mph
1017.5mb 57f 56f
9:10am  -   -   -  7
mph
1017.5mb 57f 56f
9:00am  -   -   -  7
mph
1017.5mb 57f 56f
8:50am 1.3ft 11s 5s 7
mph
1017.4mb 57f 56f
8:40am  -   -   -  7 9 mph 1017.3mb 57f 56f
8:30am  -   -   -  7 9 mph 1017.1mb 57f 56f
8:20am  -   -   -  7 9 mph 1017mb 57f 56f
8:10am  -   -   -  4 7 mph 1017mb 57f 56f
8:00am  -   -   -  7
mph
1016.9mb 57f 56f
7:50am 1.3ft 12s 5s 4 7 mph 1016.8mb 57f 56f
7:40am  -   -   -  4 7 mph 1016.5mb 57f 56f
7:30am  -   -   -  4 7 mph 1016.4mb 57f 56f
7:20am  -   -   -  7 9 mph 1016.5mb 57f 56f
7:10am  -   -   -  9
mph
1016.4mb 57f 56f
7:00am  -   -   -  9
mph
1016.3mb 57f 56f
6:50am 1.3ft 12s 5s 9 11 mph 1016.3mb 57f 56f
6:40am  -   -   -  9 11 mph 1016.1mb 57f 56f
6:30am  -   -   -  9 11 mph 1016mb 57f 56f
6:20am  -   -   -  7 9 mph 1016mb 57f 56f
6:10am  -   -   -  9 11 mph 1015.9mb 57f 56f
6:00am  -   -   -  7 9 mph 1015.8mb 57f 56f
5:50am 1.3ft 9s 4s 9 11 mph 1015.6mb 57f 56f
5:40am  -   -   -  9 11 mph 1015.5mb 57f 56f
5:30am  -   -   -  9 11 mph 1015.3mb 57f 56f
5:20am  -   -   -  9 11 mph 1015.3mb 57f 55f
5:10am  -   -   -  7 11 mph 1015.1mb 57f 55f
5:00am  -   -   -  7 9 mph 1015mb 57f 56f
4:50am 1.6ft 5s 4s 2 4 mph 1014.8mb 57f 56f
4:40am  -   -   -   -  2 mph 1014.6mb 57f 56f
4:30am  -   -   -   -  2 mph 1014.8mb 57f 56f
4:20am  -   -   -  2 4 mph 1014.6mb 57f 56f
4:10am  -   -   -  2 4 mph 1014.6mb 57f 56f
4:00am  -   -   -   -  2 mph 1014.5mb 57f 56f
3:50am 1.6ft 5s 4s  -  2 mph 1014.5mb 57f 56f
3:40am  -   -   -  2
mph
1014.4mb 57f 56f
3:30am  -   -   -  2
mph
1014.4mb 57f 56f
3:20am  -   -   -  2 4 mph 1014.4mb 57f 56f
3:10am  -   -   -  2 4 mph 1014.4mb 57f 56f
3:00am  -   -   -  4
mph
1014.5mb 57f 56f
2:50am 1.6ft 5s 4s 4
mph
1014.5mb 56f 56f
2:40am  -   -   -  4 9 mph 1014.5mb 56f 56f
2:30am  -   -   -  7 9 mph 1014.5mb 56f 56f
2:20am  -   -   -  7 9 mph 1014.5mb 57f 56f
2:10am  -   -   -  7 9 mph 1014.5mb 57f 56f
2:00am  -   -   -  7 9 mph 1014.5mb 57f 56f
1:50am 2ft 5s 4s 7 9 mph 1014.5mb 57f 56f
1:40am  -   -   -  9
mph
1014.5mb 57f 56f
1:30am  -   -   -  9
mph
1014.5mb 57f 56f
1:20am  -   -   -  9 11 mph 1014.5mb 57f 56f
1:10am  -   -   -  11 13 mph 1014.5mb 57f 56f
1:00am  -   -   -  9 11 mph 1014.4mb 57f 57f
12:50am 2.5ft 5s 4s 7
mph
1014.3mb 57f 57f
12:40am  -   -   -  4 7 mph 1014.3mb 57f 57f
12:30am  -   -   -  7 9 mph 1014.3mb 57f 57f
12:20am  -   -   -  9 11 mph 1014.1mb 57f 57f
12:10am  -   -   -  11 13 mph 1014.1mb 57f 57f
12:00am  -   -   -  9 11 mph 1014.1mb 57f 57f
Sun 05/31 11:50pm 2.5ft 5s 4s 7 9 mph 1014.3mb 57f 57f
11:40pm  -   -   -  7 9 mph 1014.1mb 57f 57f
11:30pm  -   -   -  9 11 mph 1014.1mb 57f 57f
11:20pm  -   -   -  9 11 mph 1014.1mb 57f 57f
11:10pm  -   -   -  9 11 mph 1014.1mb 57f 57f
11:00pm  -   -   -  9 11 mph 1014.4mb 57f 57f
10:50pm 3.5ft 5s 4s 9 11 mph 1014.5mb 57f 57f
10:40pm  -   -   -  11 13 mph 1014.5mb 57f 57f
10:30pm  -   -   -  11 16 mph 1014.5mb 57f 57f
10:20pm  -   -   -  13 16 mph 1014.5mb 57f 57f
10:10pm  -   -   -  11 13 mph 1014.5mb 57f 57f
10:00pm  -   -   -  11 13 mph 1014.4mb 57f 57f
9:50pm 3ft 5s 4s 11 13 mph 1014.3mb 57f 57f
9:40pm  -   -   -  11 16 mph 1014.1mb 57f 57f
9:30pm  -   -   -  13 16 mph 1014.1mb 57f 57f
9:20pm  -   -   -  13 18 mph 1014.1mb 57f 56f
9:10pm  -   -   -  16 18 mph 1014mb 57f 56f
9:00pm  -   -   -  16 18 mph 1014.1mb 57f 56f
8:50pm 3ft 5s 4s 16 20 mph 1014mb 57f 56f
8:40pm  -   -   -  16 20 mph 1014mb 57f 56f
8:30pm  -   -   -  16 20 mph 1013.9mb 57f 56f
8:20pm  -   -   -  16 20 mph 1013.9mb 57f 56f
8:10pm  -   -   -  16 18 mph 1013.9mb 57f 56f
8:00pm  -   -   -  16 18 mph 1013.9mb 57f 56f
7:50pm 2ft 3s 4s 16 18 mph 1013.9mb 57f 56f
7:40pm  -   -   -  16 18 mph 1013.9mb 57f 56f
7:30pm  -   -   -  16 18 mph 1013.9mb 57f 56f
7:20pm  -   -   -  16 18 mph 1013.9mb 57f 57f
7:10pm  -   -   -  13 18 mph 1013.9mb 57f 57f
7:00pm  -   -   -  13 18 mph 1013.9mb 57f 57f
6:50pm  -   -   -  13 16 mph 1013.9mb 57f 57f
6:40pm  -   -   -  13 16 mph 1013.8mb 57f 57f
6:30pm  -   -   -  11 16 mph 1013.9mb 57f 57f
6:20pm  -   -   -  13 16 mph 1013.9mb 57f 57f
6:10pm  -   -   -  13 16 mph 1013.9mb 57f 56f
6:00pm  -   -   -  13 16 mph 1013.9mb 57f 56f
5:50pm 1.3ft 10s 4s 13 16 mph 1013.9mb 57f 56f
5:40pm  -   -   -  13 16 mph 1014mb 57f 57f
5:30pm  -   -   -  13 16 mph 1014mb 57f 56f
5:20pm  -   -   -  13 18 mph 1014mb 58f 57f
5:10pm  -   -   -  9 11 mph 1014mb 58f 57f
5:00pm  -   -   -  9 11 mph 1014mb 57f 56f
4:50pm 1.3ft 10s 4s 9 11 mph 1014mb 57f 56f
4:40pm  -   -   -  11 13 mph 1014.1mb 57f 56f
4:10pm  -   -   -  13 16 mph 1014.4mb 57f 57f
4:00pm  -   -   -  13 16 mph 1014.5mb 58f 57f
3:50pm 1.6ft 10s 6s 11 13 mph 1014.5mb 58f 57f
3:40pm  -   -   -  11 13 mph 1014.5mb 58f 57f
3:30pm  -   -   -  11 13 mph 1014.6mb 58f 57f
3:20pm  -   -   -  9 11 mph 1014.8mb 58f 57f
3:10pm  -   -   -  9 11 mph 1015mb 57f 57f
3:00pm  -   -   -  9 11 mph 1015mb 57f 57f
2:50pm 1.6ft 11s 5s 7 9 mph 1015.1mb 57f 57f
2:40pm  -   -   -  7 9 mph 1015.3mb 57f 57f
2:30pm  -   -   -  7
mph
1015.3mb 57f 56f
2:20pm  -   -   -  4 7 mph 1015.4mb 57f 56f
2:10pm  -   -   -  4 7 mph 1015.5mb 57f 56f
2:00pm  -   -   -  4 7 mph 1015.5mb 57f 56f
1:50pm 1.6ft 9s 6s 4 7 mph 1015.6mb 57f 56f
1:40pm  -   -   -  4 7 mph 1015.8mb 57f 56f
1:30pm  -   -   -  7 9 mph 1016mb 57f 56f
1:20pm  -   -   -  7 9 mph 1016mb 57f 56f
1:10pm  -   -   -  4 7 mph 1016.1mb 57f 57f
1:00pm  -   -   -  2
mph
1016.3mb 57f 57f
12:50pm 1.6ft 9s 6s 2
mph
1016.4mb 57f 56f
12:40pm  -   -   -  2
mph
1016.4mb 57f 56f
12:30pm  -   -   -  2
mph
1016.4mb 57f 56f
12:20pm  -   -   -  2
mph
1016.4mb 57f 56f
12:10pm  -   -   -   -  2 mph 1016.5mb 57f 56f
12:00pm  -   -   -   -  2 mph 1016.4mb 57f 56f
11:50am 1.6ft 10s 5s  -  2 mph 1016.4mb 57f 56f
11:40am  -   -   -   -  2 mph 1016.4mb 58f 56f
11:30am  -   -   -   -  2 mph 1016.4mb 58f 56f
11:20am  -   -   -   -  2 mph 1016.1mb 58f 56f
11:10am  -   -   -   -  mph 1016mb 58f 56f
11:00am  -   -   -   -  4 mph 1016mb 58f 55f
10:50am 1.6ft 10s 5s 4
mph
1015.6mb 58f 55f
10:40am  -   -   -  2 4 mph 1015.8mb 58f 55f
10:30am  -   -   -  4 7 mph 1015.9mb 59f 55f
10:20am  -   -   -  7 9 mph 1015.6mb 59f 55f
10:10am  -   -   -  9 11 mph 1015.8mb 59f 55f
10:00am  -   -   -  9 11 mph 1015.8mb 59f 55f
9:50am 1.6ft 9s 5s 7 9 mph 1015.6mb 59f 55f
9:40am  -   -   -  4
mph
1015.6mb 59f 55f
9:30am  -   -   -  7 9 mph 1015.5mb 59f 55f
9:20am  -   -   -  7 11 mph 1015.5mb 59f 55f
9:10am  -   -   -  7 11 mph 1015.5mb 59f 55f
9:00am  -   -   -  4 7 mph 1015.5mb 59f 55f
8:50am 1.6ft 10s 5s 4 7 mph 1015.4mb 59f 55f
8:40am  -   -   -  2 4 mph 1015.3mb 59f 55f
8:30am  -   -   -  4 7 mph 1015mb 59f 55f
8:20am  -   -   -  4 7 mph 1014.9mb 59f 55f
8:10am  -   -   -  4 7 mph 1014.6mb 59f 55f
8:00am  -   -   -  2 9 mph 1014.6mb 59f 55f
7:50am 2ft 11s 5s 4 7 mph 1014.6mb 59f 55f
7:40am  -   -   -  2 4 mph 1014.6mb 59f 55f
7:30am  -   -   -  4 7 mph 1014.6mb 59f 55f
7:20am  -   -   -  4 9 mph 1014.5mb 59f 55f
7:10am  -   -   -  4 9 mph 1014.4mb 59f 55f
7:00am  -   -   -  2 4 mph 1014.3mb 59f 55f
6:50am 2.5ft 5s 5s 4 7 mph 1014.3mb 59f 55f
6:40am  -   -   -  7 9 mph 1014.4mb 59f 55f
6:30am  -   -   -  7 9 mph 1014.5mb 59f 55f
6:20am  -   -   -  9 11 mph 1014.4mb 59f 55f
6:10am  -   -   -  7 11 mph 1014.5mb 59f 55f
6:00am  -   -   -  4 7 mph 1014.3mb 59f 55f
5:50am 2ft 5s 4s 4 7 mph 1014.1mb 59f 55f
5:40am  -   -   -  4 7 mph 1014mb 59f 55f
5:30am  -   -   -  7 9 mph 1014mb 59f 55f
5:20am  -   -   -  7 9 mph 1013.8mb 59f 55f
5:10am  -   -   -  7 9 mph 1013.8mb 59f 55f
5:00am  -   -   -  7 9 mph 1013.6mb 59f 55f
4:50am  -   -   -  7 9 mph 1013.5mb 59f 55f
4:40am  -   -   -  7 9 mph 1013.6mb 59f 55f
4:30am  -   -   -  9 11 mph 1013.6mb 59f 55f
4:20am  -   -   -  7 9 mph 1013.5mb 59f 55f
4:10am  -   -   -  9 11 mph 1013.6mb 59f 54f
4:00am  -   -   -  7 9 mph 1013.6mb 59f 54f
3:50am 2.5ft 5s 4s 9 11 mph 1013.8mb 59f 54f
3:40am  -   -   -  11 13 mph 1013.8mb 59f 54f
3:30am  -   -   -  13 16 mph 1013.8mb 59f 54f
3:20am  -   -   -  13 16 mph 1014mb 59f 54f
3:10am  -   -   -  13 18 mph 1013.9mb 59f 54f
3:00am  -   -   -  13 18 mph 1013.9mb 59f 54f
2:50am 2.5ft 6s 4s 13 18 mph 1013.8mb 59f 54f
2:40am  -   -   -  13 18 mph 1013.9mb 59f 54f
2:30am  -   -   -  13 16 mph 1013.8mb 59f 54f
2:20am  -   -   -  11 16 mph 1013.8mb 59f 54f
2:10am  -   -   -  11 13 mph 1013.8mb 59f 54f
2:00am  -   -   -  9 13 mph 1013.9mb 59f 54f
1:50am 3ft 5s 4s 9 11 mph 1013.9mb 59f 54f
1:40am  -   -   -  9 11 mph 1013.9mb 59f 54f
1:30am  -   -   -  9 11 mph 1014mb 59f 54f
1:20am  -   -   -  9 11 mph 1013.9mb 59f 54f
1:10am  -   -   -  9 13 mph 1013.9mb 59f 54f
1:00am  -   -   -  9 13 mph 1014mb 59f 54f
12:50am 2.5ft 5s 4s 9 11 mph 1014mb 59f 54f
12:40am  -   -   -  11 13 mph 1014mb 59f 54f
12:30am  -   -   -  9 13 mph 1014mb 59f 54f
12:20am  -   -   -  9 11 mph 1014mb 59f 54f
12:10am  -   -   -  11 13 mph 1013.8mb 59f 54f
12:00am  -   -   -  11 13 mph 1013.8mb 59f 54f
Sat 05/30 11:50pm 2.5ft 5s 4s 11 13 mph 1013.6mb 59f 55f
11:40pm  -   -   -  11 13 mph 1013.8mb 59f 54f
11:30pm  -   -   -  11 13 mph 1013.6mb 59f 54f
11:20pm  -   -   -  11 16 mph 1013.6mb 59f 54f
11:10pm  -   -   -  11 13 mph 1013.5mb 60f 55f
11:00pm  -   -   -  13 16 mph 1013.5mb 60f 54f
10:50pm 2.5ft 11s 4s 13 16 mph 1013.5mb 60f 55f
10:40pm  -   -   -  13 16 mph 1013.5mb 60f 55f
10:30pm  -   -   -  11 16 mph 1013.5mb 60f 55f
10:20pm  -   -   -  13 16 mph 1013.5mb 60f 55f
10:10pm  -   -   -  13 16 mph 1013.4mb 60f 55f
10:00pm  -   -   -  13 16 mph 1013.4mb 60f 55f
9:50pm 2.5ft 6s 4s 13 16 mph 1013.1mb 60f 55f
9:40pm  -   -   -  13 18 mph 1013.1mb 60f 55f
9:30pm  -   -   -  16 18 mph 1013mb 60f 55f
9:20pm  -   -   -  13 20 mph 1013mb 60f 55f
9:10pm  -   -   -  13 18 mph 1012.9mb 60f 55f
9:00pm  -   -   -  13 16 mph 1012.9mb 60f 55f
8:50pm 2.5ft 11s 4s 13 18 mph 1012.8mb 60f 55f
8:40pm  -   -   -  11 16 mph 1012.5mb 60f 55f
8:30pm  -   -   -  11 16 mph 1012.5mb 60f 55f
8:20pm  -   -   -  11 13 mph 1012.4mb 60f 55f
8:10pm  -   -   -  11 16 mph 1012.4mb 60f 55f
8:00pm  -   -   -  11 16 mph 1012.5mb 60f 55f
7:50pm 2.5ft 11s 5s 11 13 mph 1012.5mb 60f 55f
7:40pm  -   -   -  11 13 mph 1012.5mb 60f 55f
7:30pm  -   -   -  11 13 mph 1012.5mb 60f 55f
7:20pm  -   -   -  11 16 mph 1012.4mb 60f 55f
7:10pm  -   -   -  11 16 mph 1012.5mb 60f 55f
7:00pm  -   -   -  11 13 mph 1012.5mb 60f 55f
6:50pm  -   -   -  11 13 mph 1012.5mb 60f 55f
6:40pm  -   -   -  11 13 mph 1012.5mb 60f 55f
6:30pm  -   -   -  11 13 mph 1012.8mb 60f 55f
6:20pm  -   -   -  11 13 mph 1012.8mb 60f 55f
6:10pm  -   -   -  11 13 mph 1012.9mb 60f 55f
6:00pm  -   -   -  9 13 mph 1012.9mb 60f 55f
5:50pm 2.5ft 11s 6s 9 13 mph 1013mb 60f 55f
5:40pm  -   -   -  11 13 mph 1013mb 60f 56f
5:30pm  -   -   -  11 13 mph 1013.1mb 60f 56f
5:20pm  -   -   -  9 13 mph 1013.4mb 60f 56f
5:10pm  -   -   -  9 13 mph 1013.5mb 60f 56f
5:00pm  -   -   -  7 11 mph 1013.5mb 61f 56f
4:50pm 2ft 10s 6s 7 11 mph 1013.9mb 61f 56f
4:40pm  -   -   -  7 11 mph 1013.9mb 61f 56f
4:30pm  -   -   -  7 9 mph 1013.9mb 61f 56f
4:20pm  -   -   -  7 9 mph 1014mb 61f 56f
4:10pm  -   -   -  4 9 mph 1014.3mb 60f 56f
4:00pm  -   -   -  7 9 mph 1014.4mb 61f 57f
3:50pm 2ft 11s 6s 7 9 mph 1014.5mb 61f 56f